Time;durP1;ratioP1;P1;durP2;ratioP2;P2;SDS_P1;SDS_P2;PMS_P1;PMS_P2;Temp;Humidity;BMP_temperature;BMP_pressure;BME280_temperature;BME280_humidity;BME280_pressure;Samples;Min_cycle;Max_cycle;Signal;HPM_P1;HPM_P2
2023/03/06 00:04:44;;;;;;;38.20;20.00;;;;;;;-5.23;75.93;99539.05;107174;1254;1016136;-71
2023/03/06 00:09:37;;;;;;;40.80;20.90;;;;;;;-5.27;76.28;99540.83;107178;1255;1016474;-71
2023/03/06 00:14:29;;;;;;;33.80;18.90;;;;;;;-5.33;75.87;99544.83;107176;1257;1016255;-71
2023/03/06 00:19:23;;;;;;;36.20;20.30;;;;;;;-5.40;75.84;99544.62;107210;1258;1016505;-71
2023/03/06 00:24:16;;;;;;;31.90;20.40;;;;;;;-5.45;75.81;99540.78;107158;1258;1019075;-71
2023/03/06 00:29:08;;;;;;;37.60;18.70;;;;;;;-5.51;75.52;99542.37;107222;1259;1016075;-71
2023/03/06 00:34:02;;;;;;;32.50;19.70;;;;;;;-5.59;75.42;99540.21;107207;1254;1016298;-71
2023/03/06 00:38:55;;;;;;;47.00;21.50;;;;;;;-5.61;75.77;99538.42;107235;1257;1016956;-71
2023/03/06 00:43:50;;;;;;;37.90;19.20;;;;;;;-5.60;75.93;99542.03;107122;1254;1070205;-70
2023/03/06 00:48:43;;;;;;;34.40;18.40;;;;;;;-5.63;75.66;99543.64;107206;1257;1016501;-71
2023/03/06 00:53:36;;;;;;;37.70;18.50;;;;;;;-5.70;75.62;99537.70;107159;1259;1016442;-71
2023/03/06 00:58:29;;;;;;;33.40;17.90;;;;;;;-5.77;75.42;99540.63;107110;1254;1016703;-71
2023/03/06 01:03:22;;;;;;;36.40;19.00;;;;;;;-5.85;75.44;99537.75;107191;1258;1016375;-71
2023/03/06 01:08:16;;;;;;;34.10;18.50;;;;;;;-5.89;75.22;99534.96;107277;1256;1017382;-70
2023/03/06 01:13:09;;;;;;;32.60;16.50;;;;;;;-5.99;75.04;99528.98;107166;1254;1016236;-71
2023/03/06 01:18:02;;;;;;;35.70;17.30;;;;;;;-6.06;75.35;99529.89;107145;1254;1016088;-71
2023/03/06 01:22:55;;;;;;;31.40;17.90;;;;;;;-6.09;75.32;99525.09;107231;1257;1016423;-71
2023/03/06 01:27:48;;;;;;;30.80;16.00;;;;;;;-6.16;74.82;99522.70;107203;1254;1016583;-71
2023/03/06 01:32:40;;;;;;;34.20;18.80;;;;;;;-6.21;75.13;99527.11;107112;1259;1016377;-71
2023/03/06 01:37:36;;;;;;;36.40;17.20;;;;;;;-6.22;75.55;99521.48;107204;1259;1018808;-71
2023/03/06 01:42:29;;;;;;;34.20;17.10;;;;;;;-6.20;75.49;99521.08;107122;1256;1058669;-71
2023/03/06 01:47:23;;;;;;;35.40;18.00;;;;;;;-6.21;75.65;99520.04;107174;1254;1076297;-71
2023/03/06 01:52:21;;;;;;;30.60;15.90;;;;;;;-6.21;75.77;99517.28;107228;1255;1016191;-71
2023/03/06 01:57:28;;;;;;;34.40;17.80;;;;;;;-6.25;75.41;99518.70;107157;1259;1071393;-71
2023/03/06 02:02:22;;;;;;;33.50;17.70;;;;;;;-6.29;75.40;99519.46;107106;1256;1051607;-71
2023/03/06 02:07:20;;;;;;;38.40;19.80;;;;;;;-6.34;75.38;99517.69;107227;1254;1016960;-71
2023/03/06 02:12:17;;;;;;;36.10;19.10;;;;;;;-6.39;75.25;99517.83;107091;1257;1072773;-71
2023/03/06 02:17:12;;;;;;;;;;;;;;;-6.44;75.01;99511.26;107169;1254;1065709;-71
2023/03/06 02:22:06;;;;;;;42.60;19.80;;;;;;;-6.50;75.05;99510.52;107055;1259;1071602;-71
2023/03/06 02:27:00;;;;;;;43.90;18.80;;;;;;;-6.57;74.97;99511.96;107147;1259;1018443;-73
2023/03/06 02:31:53;;;;;;;38.60;20.60;;;;;;;-6.64;74.41;99514.86;107107;1259;1058347;-71
2023/03/06 02:36:50;;;;;;;40.40;20.60;;;;;;;-6.73;74.23;99514.63;107258;1259;1016311;-71
2023/03/06 02:41:43;;;;;;;37.10;18.50;;;;;;;-6.80;74.67;99509.77;107152;1257;1068192;-71
2023/03/06 02:46:37;;;;;;;38.90;18.30;;;;;;;-6.85;74.46;99510.27;107170;1254;1070915;-71
2023/03/06 02:51:30;;;;;;;40.50;19.80;;;;;;;-6.90;74.61;99511.82;107238;1254;1016199;-70
2023/03/06 02:56:23;;;;;;;46.60;21.10;;;;;;;-6.95;74.44;99511.96;107218;1255;1016044;-71
2023/03/06 03:01:16;;;;;;;41.20;20.10;;;;;;;-6.99;74.38;99503.95;107099;1254;1016675;-71
2023/03/06 03:06:08;;;;;;;38.70;18.40;;;;;;;-7.02;74.58;99506.64;107253;1254;1016659;-71
2023/03/06 03:11:02;;;;;;;36.00;17.60;;;;;;;-7.03;74.61;99507.05;107112;1255;1017323;-71
2023/03/06 03:16:07;;;;;;;34.60;18.70;;;;;;;-7.07;74.24;99507.30;107182;1260;1051285;-71
2023/03/06 03:21:00;;;;;;;39.50;19.10;;;;;;;-7.12;74.12;99511.14;107062;1257;1059019;-71
2023/03/06 03:25:53;;;;;;;36.70;18.10;;;;;;;-7.20;74.12;99508.13;107180;1257;1016333;-72
2023/03/06 03:30:46;;;;;;;37.10;18.70;;;;;;;-7.25;74.02;99508.57;107201;1255;1017069;-71
2023/03/06 03:35:40;;;;;;;35.30;17.10;;;;;;;-7.28;74.24;99510.79;107248;1254;1016432;-71
2023/03/06 03:40:33;;;;;;;44.90;19.50;;;;;;;-7.31;74.18;99508.38;107237;1254;1016270;-71
2023/03/06 03:45:25;;;;;;;29.80;17.80;;;;;;;-7.36;73.88;99510.04;107202;1256;1018487;-71
2023/03/06 03:50:19;;;;;;;34.20;18.20;;;;;;;-7.42;74.02;99512.38;107018;1258;1018737;-72
2023/03/06 03:55:12;;;;;;;38.50;19.30;;;;;;;-7.46;73.90;99507.38;107190;1255;1016397;-71
2023/03/06 04:00:06;;;;;;;36.30;18.20;;;;;;;-7.51;73.86;99506.46;107231;1260;1016567;-71
2023/03/06 04:05:05;;;;;;;32.40;16.90;;;;;;;-7.55;74.07;99498.98;107200;1254;1051100;-71
2023/03/06 04:09:58;;;;;;;36.90;18.60;;;;;;;-7.58;74.11;99502.11;107054;1254;1016108;-71
2023/03/06 04:14:52;;;;;;;34.50;18.50;;;;;;;-7.63;73.93;99499.45;107261;1254;1016428;-71
2023/03/06 04:19:45;;;;;;;39.60;19.00;;;;;;;-7.65;74.08;99497.77;107127;1254;1016412;-71
2023/03/06 04:24:40;;;;;;;37.30;18.70;;;;;;;-7.69;73.97;99494.87;107210;1254;1016309;-71
2023/03/06 04:29:33;;;;;;;34.90;17.80;;;;;;;-7.72;73.89;99491.27;107085;1254;1050878;-71
2023/03/06 04:34:26;;;;;;;36.50;18.20;;;;;;;-7.75;73.92;99492.25;107195;1254;1016458;-71
2023/03/06 04:39:19;;;;;;;39.60;18.00;;;;;;;-7.78;73.93;99486.66;107142;1254;1016156;-71
2023/03/06 04:44:12;;;;;;;29.80;15.10;;;;;;;-7.82;73.78;99485.50;107203;1254;1016353;-71
2023/03/06 04:49:05;;;;;;;33.90;17.80;;;;;;;-7.87;73.92;99487.56;107276;1254;1016136;-71
2023/03/06 04:53:58;;;;;;;27.00;13.70;;;;;;;-7.89;74.09;99486.54;107235;1254;1016233;-71
2023/03/06 04:58:50;;;;;;;38.70;18.50;;;;;;;-7.89;74.11;99487.05;107324;1254;1016210;-70
2023/03/06 05:03:43;;;;;;;35.90;17.90;;;;;;;-7.88;74.27;99483.39;107175;1254;1016411;-71
2023/03/06 05:08:36;;;;;;;32.30;17.50;;;;;;;-7.86;74.40;99483.74;107266;1254;1016584;-71
2023/03/06 05:13:28;;;;;;;35.70;17.70;;;;;;;-7.83;74.68;99485.80;107337;1254;1016293;-70
2023/03/06 05:18:21;;;;;;;37.70;18.20;;;;;;;-7.78;74.85;99485.30;107243;1255;1016311;-71
2023/03/06 05:23:14;;;;;;;36.20;19.30;;;;;;;-7.72;74.92;99484.40;107194;1254;1017130;-71
2023/03/06 05:28:08;;;;;;;46.40;20.40;;;;;;;-7.69;74.95;99483.77;107325;1254;1016492;-71
2023/03/06 05:33:01;;;;;;;36.80;20.00;;;;;;;-7.63;75.09;99481.29;107347;1254;1016403;-71
2023/03/06 05:37:53;;;;;;;36.90;18.70;;;;;;;-7.57;74.91;99477.10;107258;1254;1016632;-71
2023/03/06 05:42:46;;;;;;;46.80;22.60;;;;;;;-7.54;74.85;99478.20;107181;1254;1016051;-71
2023/03/06 05:47:39;;;;;;;41.80;22.10;;;;;;;-7.50;74.95;99476.30;107262;1254;1016860;-71
2023/03/06 05:52:31;;;;;;;45.30;21.80;;;;;;;-7.42;75.11;99479.86;107252;1254;1016393;-71
2023/03/06 05:57:26;;;;;;;51.20;23.20;;;;;;;-7.35;74.98;99483.36;107143;1254;1016525;-71
2023/03/06 06:02:19;;;;;;;45.60;25.20;;;;;;;-7.30;75.06;99485.23;107347;1254;1070568;-71
2023/03/06 06:07:14;;;;;;;49.90;22.90;;;;;;;-7.21;75.11;99484.94;107232;1253;1016433;-71
2023/03/06 06:12:07;;;;;;;46.60;23.20;;;;;;;-7.13;75.10;99490.39;107220;1254;1058779;-71
2023/03/06 06:17:03;;;;;;;47.00;25.70;;;;;;;-7.04;75.21;99493.70;107525;1254;1073127;-74
2023/03/06 06:21:55;;;;;;;50.80;27.10;;;;;;;-6.93;75.40;99493.95;107177;1254;1016298;-71
2023/03/06 06:26:56;;;;;;;59.10;27.60;;;;;;;-6.81;75.55;99492.64;107242;1257;1016285;-71
2023/03/06 06:31:51;;;;;;;55.70;27.60;;;;;;;-6.71;75.43;99493.48;107282;1254;1050621;-72
2023/03/06 06:36:44;;;;;;;47.70;26.50;;;;;;;-6.59;75.49;99495.12;108220;1254;1016020;-72
2023/03/06 06:41:37;;;;;;;50.90;28.20;;;;;;;-6.42;75.84;99493.49;107698;1254;1016070;-72
2023/03/06 06:46:49;;;;;;;57.30;26.90;;;;;;;-6.27;76.03;99491.80;107638;1254;1067870;-71
2023/03/06 06:52:02;;;;;;;58.00;29.60;;;;;;;-6.08;76.26;99488.73;107230;1254;1070513;-71
2023/03/06 06:56:55;;;;;;;50.30;28.80;;;;;;;-5.80;76.82;99485.58;107316;1254;1016159;-71
2023/03/06 07:01:47;;;;;;;47.40;28.10;;;;;;;-4.73;76.09;99486.35;107236;1254;1016416;-71
2023/03/06 07:06:41;;;;;;;43.20;26.90;;;;;;;-4.21;75.79;99482.73;107151;1254;1016392;-72
2023/03/06 07:11:33;;;;;;;42.40;24.20;;;;;;;-3.63;75.67;99477.73;108581;1254;1016310;-72
2023/03/06 07:16:27;;;;;;;40.00;24.10;;;;;;;-3.47;75.59;99473.33;108564;1254;1015847;-71
2023/03/06 07:21:23;;;;;;;35.80;21.00;;;;;;;-3.59;75.66;99471.52;107434;1253;1050865;-72
2023/03/06 07:26:16;;;;;;;43.20;24.00;;;;;;;-3.65;75.70;99467.15;107122;1257;1017672;-71
2023/03/06 07:31:10;;;;;;;39.00;22.90;;;;;;;-3.59;76.14;99458.33;107179;1253;1016377;-72
2023/03/06 07:36:03;;;;;;;43.20;24.10;;;;;;;-3.34;76.11;99456.05;107232;1254;1065699;-72
2023/03/06 07:40:56;;;;;;;41.20;24.10;;;;;;;-3.06;76.08;99454.11;107197;1254;1016545;-71
2023/03/06 07:45:56;;;;;;;36.70;23.80;;;;;;;-2.70;75.90;99455.38;107188;1258;1016213;-72
2023/03/06 07:51:01;;;;;;;35.30;24.00;;;;;;;-2.08;75.50;99452.73;107256;1254;1058610;-72
2023/03/06 07:55:54;;;;;;;34.00;23.60;;;;;;;0.41;72.96;99454.11;107346;1254;1073032;-72
2023/03/06 08:00:47;;;;;;;39.70;24.00;;;;;;;1.66;70.86;99453.41;107230;1254;1016176;-72
2023/03/06 08:05:40;;;;;;;29.00;21.30;;;;;;;3.20;69.41;99456.98;107341;1254;1016162;-72
2023/03/06 08:10:33;;;;;;;29.90;21.40;;;;;;;5.62;67.01;99445.52;107259;1254;1016418;-72
2023/03/06 08:15:26;;;;;;;25.90;18.20;;;;;;;5.38;66.30;99444.46;107268;1254;1016316;-72
2023/03/06 08:20:18;;;;;;;28.40;18.90;;;;;;;4.97;66.55;99446.50;107218;1257;1015888;-72
2023/03/06 08:25:13;;;;;;;24.20;17.40;;;;;;;4.49;66.07;99449.13;107206;1254;1016171;-71
2023/03/06 08:30:08;;;;;;;26.00;17.50;;;;;;;4.79;64.92;99449.56;107249;1257;1071020;-72
2023/03/06 08:35:03;;;;;;;24.40;17.50;;;;;;;4.03;64.96;99450.02;107321;1254;1051142;-72
2023/03/06 08:39:56;;;;;;;23.10;16.70;;;;;;;3.48;65.73;99445.42;107324;1254;1058163;-73
2023/03/06 08:44:49;;;;;;;24.70;16.40;;;;;;;3.37;66.44;99443.80;107346;1256;1016976;-72
2023/03/06 08:49:42;;;;;;;24.20;14.50;;;;;;;3.21;66.61;99449.20;107342;1254;1016452;-72
2023/03/06 08:54:36;;;;;;;19.90;14.10;;;;;;;2.98;66.23;99446.04;107283;1254;1016020;-73
2023/03/06 08:59:29;;;;;;;25.10;15.70;;;;;;;3.08;66.13;99445.42;107189;1254;1016854;-73
2023/03/06 09:04:21;;;;;;;20.80;13.20;;;;;;;3.28;65.84;99440.31;107191;1254;1016419;-72
2023/03/06 09:09:14;;;;;;;20.10;13.30;;;;;;;3.47;65.02;99436.50;107227;1254;1016242;-72
2023/03/06 09:14:07;;;;;;;17.70;11.90;;;;;;;3.67;65.07;99431.84;107297;1254;1016284;-72
2023/03/06 09:19:00;;;;;;;15.80;10.60;;;;;;;3.82;64.89;99423.46;107199;1254;1019520;-73
2023/03/06 09:23:53;;;;;;;18.10;10.20;;;;;;;3.67;64.14;99425.70;107142;1257;1016533;-72
2023/03/06 09:28:46;;;;;;;15.30;9.60;;;;;;;3.39;64.72;99420.20;107258;1253;1016300;-73
2023/03/06 09:33:39;;;;;;;17.30;10.30;;;;;;;3.43;65.12;99425.29;107394;1254;1016209;-73
2023/03/06 09:38:32;;;;;;;15.70;9.60;;;;;;;3.58;65.20;99421.34;107260;1254;1016435;-72
2023/03/06 09:43:46;;;;;;;17.80;10.10;;;;;;;3.71;64.92;99418.24;107161;1254;1016340;-72
2023/03/06 09:49:09;;;;;;;11.60;8.00;;;;;;;3.57;64.71;99413.45;107350;1257;1050851;-72
2023/03/06 09:54:13;;;;;;;14.00;8.50;;;;;;;3.25;65.20;99407.00;107268;1255;1059049;-72
2023/03/06 09:59:19;;;;;;;14.60;7.90;;;;;;;3.30;65.36;99404.73;107199;1257;1072865;-72
2023/03/06 10:04:46;;;;;;;14.30;8.50;;;;;;;3.34;65.41;99404.49;107201;1254;1064151;-72
2023/03/06 10:09:46;;;;;;;14.00;8.80;;;;;;;3.33;65.24;99401.05;107294;1254;1073256;-71
2023/03/06 10:14:44;;;;;;;14.90;9.00;;;;;;;3.27;65.20;99399.18;107271;1254;1051729;-73
2023/03/06 10:19:42;;;;;;;13.10;8.50;;;;;;;3.11;65.18;99401.17;107273;1254;1059201;-74
2023/03/06 10:24:54;;;;;;;10.30;8.10;;;;;;;2.93;65.49;99397.45;107345;1254;1016232;-74
2023/03/06 10:30:06;;;;;;;13.90;9.20;;;;;;;2.89;65.73;99395.29;107325;1254;1068357;-72
2023/03/06 10:35:04;;;;;;;16.00;9.60;;;;;;;2.85;65.55;99390.58;107281;1254;1071541;-73
2023/03/06 10:40:09;;;;;;;13.10;9.10;;;;;;;2.88;65.47;99390.98;107300;1253;1051398;-74
2023/03/06 10:45:08;;;;;;;12.20;9.00;;;;;;;2.78;65.23;99385.77;107295;1254;1059375;-72
2023/03/06 10:50:03;;;;;;;15.40;10.90;;;;;;;2.66;65.80;99383.71;107225;1253;1072744;-72
2023/03/06 10:55:22;;;;;;;18.20;11.00;;;;;;;2.55;66.08;99387.87;107332;1254;1065318;-73
2023/03/06 11:00:35;;;;;;;15.20;11.10;;;;;;;2.34;66.76;99383.84;107253;1253;1071238;-73
2023/03/06 11:05:28;;;;;;;17.20;10.40;;;;;;;2.25;67.15;99380.20;107273;1253;1051621;-73
2023/03/06 11:10:22;;;;;;;13.70;8.40;;;;;;;2.08;67.29;99371.16;107289;1254;1016399;-73
2023/03/06 11:15:17;;;;;;;11.40;8.40;;;;;;;2.14;67.37;99365.34;107272;1254;1016436;-72
2023/03/06 11:20:19;;;;;;;12.40;8.70;;;;;;;2.17;66.85;99359.44;107235;1254;1065769;-72
2023/03/06 11:25:16;;;;;;;13.20;7.20;;;;;;;2.13;67.39;99352.15;107271;1254;1071178;-71
2023/03/06 11:30:18;;;;;;;14.70;10.70;;;;;;;1.93;67.77;99344.21;107318;1254;1051457;-72
2023/03/06 11:35:24;;;;;;;15.60;9.90;;;;;;;1.77;68.45;99336.54;107271;1254;1060884;-73
2023/03/06 11:40:31;;;;;;;12.50;8.40;;;;;;;1.77;68.76;99330.41;107359;1253;1072224;-74
2023/03/06 11:45:36;;;;;;;12.80;9.40;;;;;;;1.70;68.66;99326.45;107358;1253;1068214;-73
2023/03/06 11:50:37;;;;;;;11.90;8.30;;;;;;;1.73;68.99;99321.40;107192;1254;1071034;-73
2023/03/06 11:55:30;;;;;;;10.20;8.40;;;;;;;1.80;69.36;99315.14;107236;1254;1051768;-73
2023/03/06 12:00:38;;;;;;;20.50;10.70;;;;;;;1.89;69.33;99308.21;107335;1254;1016597;-74
2023/03/06 12:05:48;;;;;;;14.90;11.00;;;;;;;2.12;68.89;99302.89;107276;1254;1074970;-73
2023/03/06 12:10:52;;;;;;;13.10;9.80;;;;;;;2.23;68.87;99295.00;107321;1254;1065578;-73
2023/03/06 12:16:03;;;;;;;13.60;9.90;;;;;;;2.09;69.40;99294.06;107256;1253;1071833;-73
2023/03/06 12:21:38;;;;;;;12.20;7.60;;;;;;;1.95;69.33;99291.80;107314;1254;1051172;-72
2023/03/06 12:26:49;;;;;;;13.40;7.00;;;;;;;1.72;69.26;99291.48;107359;1253;1058682;-73
2023/03/06 12:32:05;;;;;;;11.00;7.80;;;;;;;1.45;69.36;99290.34;107278;1254;1072525;-72
2023/03/06 12:37:16;;;;;;;14.00;9.40;;;;;;;1.35;70.09;99280.98;107394;1256;1067608;-73
2023/03/06 12:42:34;;;;;;;16.20;10.20;;;;;;;1.24;70.61;99279.95;107264;1257;1070149;-73
2023/03/06 12:47:28;;;;;;;;;;;;;;;1.15;70.97;99274.89;107251;1254;1051552;-73
2023/03/06 12:52:31;;;;;;;20.90;13.30;;;;;;;1.09;71.55;99270.27;107243;1254;1016171;-73
2023/03/06 12:57:25;;;;;;;19.50;14.20;;;;;;;1.02;71.65;99263.55;107244;1258;1073509;-72
2023/03/06 13:02:42;;;;;;;22.40;17.00;;;;;;;0.94;71.75;99260.40;107269;1254;1016359;-73
2023/03/06 13:08:13;;;;;;;19.60;15.00;;;;;;;0.94;72.24;99255.46;107205;1254;1073796;-74
2023/03/06 13:13:31;;;;;;;23.60;16.00;;;;;;;0.93;72.28;99250.33;107379;1254;1050606;-73
2023/03/06 13:18:24;;;;;;;24.10;15.70;;;;;;;0.81;72.47;99245.48;107327;1254;1058212;-73
2023/03/06 13:23:28;;;;;;;24.50;16.50;;;;;;;0.75;72.90;99234.04;107310;1254;1016433;-73
2023/03/06 13:28:38;;;;;;;20.60;14.10;;;;;;;0.68;72.78;99233.48;107295;1254;1065016;-74
2023/03/06 13:33:31;;;;;;;19.10;14.20;;;;;;;0.63;73.09;99228.36;107300;1256;1070883;-76
2023/03/06 13:39:09;;;;;;;24.60;14.20;;;;;;;0.58;73.33;99222.24;107293;1254;1016456;-73
2023/03/06 13:44:27;;;;;;;21.40;14.30;;;;;;;0.50;73.46;99225.20;106668;1262;1058651;-73
2023/03/06 13:49:24;;;;;;;22.80;14.50;;;;;;;0.47;73.71;99217.43;106634;1264;1072458;-74
2023/03/06 13:54:35;;;;;;;;;;;;;;;0.43;74.09;99214.39;106669;1263;1066794;-75
2023/03/06 13:59:51;;;;;;;19.00;13.20;;;;;;;0.37;74.19;99215.56;106589;1264;1070075;-73
2023/03/06 14:04:59;;;;;;;16.40;10.40;;;;;;;0.35;74.69;99216.54;106643;1264;1049896;-73
2023/03/06 14:10:14;;;;;;;19.80;14.30;;;;;;;0.35;74.86;99216.20;106677;1263;1059526;-73
2023/03/06 14:15:31;;;;;;;23.30;15.20;;;;;;;0.35;74.92;99207.16;106635;1263;1073937;-72
2023/03/06 14:20:33;;;;;;;24.30;15.60;;;;;;;0.35;75.04;99209.03;107223;1254;1065516;-72
2023/03/06 14:25:31;;;;;;;20.70;14.50;;;;;;;0.41;75.32;99197.63;107050;1254;1071660;-73
2023/03/06 14:30:25;;;;;;;22.70;15.80;;;;;;;0.50;75.44;99196.89;107312;1256;1051530;-74
2023/03/06 14:35:25;;;;;;;22.20;16.10;;;;;;;0.54;75.50;99192.61;107195;1254;1016108;-74
2023/03/06 14:40:29;;;;;;;23.80;17.30;;;;;;;0.57;75.72;99192.36;107264;1254;1072901;-74
2023/03/06 14:45:23;;;;;;;27.00;19.10;;;;;;;0.60;75.67;99183.08;107272;1254;1066930;-74
2023/03/06 14:50:29;;;;;;;28.40;20.20;;;;;;;0.66;75.96;99184.30;107301;1254;1016257;-76
2023/03/06 14:55:24;;;;;;;31.40;22.30;;;;;;;0.70;75.93;99183.04;107263;1257;1051784;-76
2023/03/06 15:00:21;;;;;;;26.50;20.10;;;;;;;0.77;76.20;99183.95;107330;1255;1058240;-73
2023/03/06 15:05:27;;;;;;;32.40;22.60;;;;;;;0.82;76.14;99182.40;107327;1256;1076917;-73
2023/03/06 15:10:29;;;;;;;34.60;23.90;;;;;;;0.86;76.48;99184.04;107332;1254;1064907;-74
2023/03/06 15:15:29;;;;;;;36.30;25.90;;;;;;;0.87;76.31;99181.02;107331;1257;1070529;-73
2023/03/06 15:20:41;;;;;;;34.10;24.40;;;;;;;0.86;76.87;99185.10;107162;1253;1051217;-73
2023/03/06 15:25:34;;;;;;;34.60;25.20;;;;;;;0.85;77.00;99188.11;107300;1257;1061035;-73
2023/03/06 15:30:29;;;;;;;27.60;21.00;;;;;;;0.85;76.94;99187.79;107188;1256;1016064;-71
2023/03/06 15:35:29;;;;;;;30.80;20.90;;;;;;;0.85;77.40;99184.89;107448;1254;1064924;-73
2023/03/06 15:40:24;;;;;;;27.70;18.40;;;;;;;0.82;77.61;99184.98;107294;1258;1073058;-73
2023/03/06 15:45:20;;;;;;;29.00;20.10;;;;;;;0.75;77.55;99186.95;107305;1256;1054029;-73
2023/03/06 15:50:19;;;;;;;29.10;19.90;;;;;;;0.69;77.79;99180.65;107344;1254;1060638;-72
2023/03/06 15:55:13;;;;;;;31.70;22.40;;;;;;;0.68;78.34;99179.59;107376;1256;1074848;-73
2023/03/06 16:00:10;;;;;;;32.40;21.40;;;;;;;0.68;78.16;99184.88;107385;1254;1016171;-72
2023/03/06 16:05:19;;;;;;;33.90;22.30;;;;;;;0.66;78.54;99181.75;107365;1256;1070569;-73
2023/03/06 16:10:14;;;;;;;30.80;21.40;;;;;;;0.63;78.57;99181.98;107352;1253;1015976;-73
2023/03/06 16:15:18;;;;;;;30.10;21.20;;;;;;;0.61;78.87;99180.54;107285;1255;1058376;-73
2023/03/06 16:20:22;;;;;;;31.70;22.00;;;;;;;0.56;78.99;99183.12;107225;1256;1073169;-73
2023/03/06 16:25:17;;;;;;;33.80;22.80;;;;;;;0.52;79.12;99186.05;107257;1258;1066077;-72
2023/03/06 16:30:19;;;;;;;30.20;20.40;;;;;;;0.49;79.14;99186.98;107307;1257;1070643;-73
2023/03/06 16:35:13;;;;;;;30.30;21.10;;;;;;;0.45;79.28;99182.26;107291;1254;1051203;-72
2023/03/06 16:40:18;;;;;;;32.70;21.20;;;;;;;0.42;79.42;99181.14;107387;1258;1016523;-73
2023/03/06 16:45:11;;;;;;;27.30;18.50;;;;;;;0.40;79.30;99187.02;107188;1255;1073013;-72
2023/03/06 16:50:04;;;;;;;30.50;20.80;;;;;;;0.35;79.30;99187.21;107272;1255;1017339;-72
2023/03/06 16:54:57;;;;;;;36.80;21.50;;;;;;;0.33;79.57;99192.45;107252;1255;1016027;-72
2023/03/06 16:59:50;;;;;;;30.30;20.40;;;;;;;0.33;79.50;99189.88;107332;1253;1016483;-72
2023/03/06 17:04:44;;;;;;;35.90;22.20;;;;;;;0.33;79.51;99188.34;107155;1257;1016487;-72
2023/03/06 17:09:36;;;;;;;33.30;21.80;;;;;;;0.34;79.68;99192.61;107199;1258;1018740;-72
2023/03/06 17:14:29;;;;;;;39.50;24.30;;;;;;;0.34;79.78;99192.64;107214;1255;1016374;-72
2023/03/06 17:19:22;;;;;;;37.60;23.10;;;;;;;0.35;79.97;99189.08;107264;1254;1016026;-71
2023/03/06 17:24:15;;;;;;;38.50;24.60;;;;;;;0.34;79.96;99190.75;107056;1257;1016349;-72
2023/03/06 17:29:10;;;;;;;42.70;26.90;;;;;;;0.33;79.93;99198.90;107513;1255;1017011;-72
2023/03/06 17:39:48;;;;;;;28.60;20.70;;;;;;;0.37;80.30;99196.14;107147;1254;1065339;-72
2023/03/06 17:44:41;;;;;;;30.20;19.50;;;;;;;0.35;80.53;99189.09;107069;1257;1016477;-71
2023/03/06 17:49:34;;;;;;;30.70;19.30;;;;;;;0.35;80.36;99194.21;107087;1256;1016628;-72
2023/03/06 17:54:28;;;;;;;28.70;16.80;;;;;;;0.35;80.57;99193.19;107204;1254;1016501;-72
2023/03/06 17:59:21;;;;;;;28.30;19.10;;;;;;;0.32;80.49;99186.41;107219;1256;1020159;-72
2023/03/06 18:04:15;;;;;;;33.80;20.00;;;;;;;0.31;80.71;99186.38;107217;1256;1015846;-71
2023/03/06 18:09:08;;;;;;;31.80;20.80;;;;;;;0.31;80.72;99185.56;107103;1258;1016401;-72
2023/03/06 18:14:01;;;;;;;28.30;20.00;;;;;;;0.31;80.84;99184.35;107177;1257;1016147;-72
2023/03/06 18:18:57;;;;;;;33.10;21.40;;;;;;;0.30;80.80;99186.17;107281;1257;1061349;-72
2023/03/06 18:23:50;;;;;;;33.90;23.40;;;;;;;0.26;80.50;99188.64;107155;1256;1016085;-72
2023/03/06 18:28:46;;;;;;;32.00;21.50;;;;;;;0.23;80.81;99185.95;107208;1254;1016457;-71
2023/03/06 18:33:38;;;;;;;35.20;22.30;;;;;;;0.22;80.81;99186.27;107197;1257;1070353;-71
2023/03/06 18:38:32;;;;;;;31.80;21.40;;;;;;;0.21;80.97;99185.71;107162;1256;1016123;-72
2023/03/06 18:43:25;;;;;;;33.00;22.10;;;;;;;0.18;80.86;99189.70;107204;1257;1016505;-71
2023/03/06 18:48:17;;;;;;;32.80;20.60;;;;;;;0.16;81.05;99185.71;107132;1254;1016367;-72
2023/03/06 18:53:10;;;;;;;35.00;22.90;;;;;;;0.16;80.92;99183.84;107178;1257;1016327;-72
2023/03/06 18:58:03;;;;;;;38.60;25.00;;;;;;;0.16;80.88;99181.63;107070;1257;1016586;-72
2023/03/06 19:02:56;;;;;;;32.60;22.50;;;;;;;0.16;81.47;99181.79;107178;1259;1016430;-71
2023/03/06 19:07:48;;;;;;;33.90;22.20;;;;;;;0.17;81.24;99176.56;107154;1254;1017471;-71
2023/03/06 19:12:41;;;;;;;34.10;21.90;;;;;;;0.17;81.33;99174.67;107232;1254;1017942;-71
2023/03/06 19:17:36;;;;;;;34.30;22.10;;;;;;;0.18;81.37;99169.60;107173;1258;1016333;-72
2023/03/06 19:22:30;;;;;;;36.30;22.80;;;;;;;0.19;81.54;99171.84;107183;1257;1070570;-72
2023/03/06 19:27:23;;;;;;;32.50;21.50;;;;;;;0.16;81.36;99175.83;107154;1259;1017648;-71
2023/03/06 19:32:15;;;;;;;34.90;21.00;;;;;;;0.15;81.33;99175.29;107150;1259;1016422;-72
2023/03/06 19:37:08;;;;;;;29.60;20.50;;;;;;;0.15;81.63;99171.88;107150;1255;1016152;-71
2023/03/06 19:42:03;;;;;;;32.80;21.50;;;;;;;0.16;81.59;99172.09;107175;1255;1018845;-72
2023/03/06 19:46:56;;;;;;;36.70;22.50;;;;;;;0.16;81.73;99172.25;107181;1259;1073324;-72
2023/03/06 19:51:49;;;;;;;33.60;22.10;;;;;;;0.16;81.78;99165.11;107231;1254;1016465;-72
2023/03/06 19:56:42;;;;;;;33.70;21.50;;;;;;;0.16;81.76;99165.09;107148;1255;1016311;-72
2023/03/06 20:01:34;;;;;;;35.40;22.10;;;;;;;0.17;81.62;99162.91;107193;1258;1015973;-71
2023/03/06 20:06:32;;;;;;;31.30;20.40;;;;;;;0.18;81.57;99157.34;107118;1257;1016992;-72
2023/03/06 20:11:28;;;;;;;37.00;23.50;;;;;;;0.18;81.55;99155.96;107286;1254;1071544;-71
2023/03/06 20:16:26;;;;;;;34.50;21.40;;;;;;;0.19;81.79;99157.88;107191;1254;1050492;-72
2023/03/06 20:21:22;;;;;;;30.00;19.80;;;;;;;0.20;81.93;99158.93;107222;1254;1058565;-72
2023/03/06 20:26:15;;;;;;;32.00;19.60;;;;;;;0.19;81.49;99160.08;107242;1254;1018096;-72
2023/03/06 20:31:18;;;;;;;31.20;19.40;;;;;;;0.18;81.77;99157.67;107057;1259;1016239;-72
2023/03/06 20:36:39;;;;;;;33.10;21.00;;;;;;;0.17;81.46;99154.56;107113;1257;1073124;-72
2023/03/06 20:41:32;;;;;;;29.70;18.70;;;;;;;0.17;81.62;99153.89;106937;1260;1050829;-72
2023/03/06 20:46:26;;;;;;;33.90;19.50;;;;;;;0.18;81.83;99155.45;107021;1257;1016410;-72
2023/03/06 20:58:41;;;;;;;32.90;19.80;;;;;;;0.17;81.71;99158.17;107089;1257;1065219;-72
2023/03/06 21:03:34;;;;;;;32.80;18.90;;;;;;;0.16;81.44;99160.98;106980;1259;1016443;-72
2023/03/06 21:08:27;;;;;;;28.50;17.30;;;;;;;0.14;81.52;99155.66;106992;1257;1016496;-71
2023/03/06 21:13:41;;;;;;;25.70;15.60;;;;;;;0.14;81.64;99158.38;107186;1258;1016555;-72
2023/03/06 21:18:53;;;;;;;21.50;13.10;;;;;;;0.12;81.46;99159.16;107185;1259;1072904;-71
2023/03/06 21:23:48;;;;;;;22.00;13.90;;;;;;;0.10;81.43;99155.70;107047;1259;1065530;-71
2023/03/06 21:28:41;;;;;;;21.50;12.00;;;;;;;0.10;81.66;99155.16;107074;1254;1018672;-71
2023/03/06 21:33:34;;;;;;;17.30;10.90;;;;;;;0.06;81.30;99147.02;107233;1260;1016296;-72
2023/03/06 21:38:28;;;;;;;16.00;11.10;;;;;;;0.04;81.54;99150.71;107306;1254;1016232;-72
2023/03/06 21:43:20;;;;;;;16.50;11.00;;;;;;;0.03;81.67;99149.83;107106;1254;1016403;-72
2023/03/06 21:48:15;;;;;;;14.20;10.10;;;;;;;0.02;81.71;99149.11;107141;1253;1015748;-72
2023/03/06 21:53:08;;;;;;;19.80;12.20;;;;;;;0.01;81.76;99146.70;107081;1258;1016028;-72
2023/03/06 21:58:01;;;;;;;17.90;12.20;;;;;;;-0.01;81.63;99150.56;107315;1258;1016459;-72
2023/03/06 22:02:54;;;;;;;20.00;12.10;;;;;;;-0.01;81.55;99156.37;107134;1254;1017280;-72
2023/03/06 22:07:47;;;;;;;17.20;12.30;;;;;;;-0.01;81.57;99148.86;107302;1254;1016438;-72
2023/03/06 22:12:40;;;;;;;18.10;13.20;;;;;;;-0.00;81.81;99150.08;107090;1257;1016505;-72
2023/03/06 22:17:33;;;;;;;21.70;13.10;;;;;;;0.02;81.99;99149.10;107146;1254;1016041;-72
2023/03/06 22:22:26;;;;;;;21.30;14.20;;;;;;;0.03;81.97;99155.62;107350;1254;1016151;-72
2023/03/06 22:27:19;;;;;;;23.30;14.20;;;;;;;0.03;81.96;99155.11;107319;1254;1016160;-71